SBOSBO LYS / LFLL
Speedbird OnlineSpeedbird Online LYS / LFLL

Lyon Saint-Exupéry Airport
23:48 8.7°C

Location Lyon, France
Latitude: 45.725556
Longitude: 5.081111
Local Time 23:48 on 27 Feb 2024
UTC +1 hours (Europe/Paris)
Currency £1 equals EUR 1.17
METAR LFLL 272230Z 34021KT 9999 BKN020 BKN030 BKN053 09/05 Q1014 NOSIG
TAF TAF LFLL 271700Z 2718/2824 34015G25KT 9999 OVC020 TEMPO 2722/2812 OVC012 PROB30 TEMPO 2806/2809 OVC008
Weather As Of 27 Feb 2024 23:48
Description Broken clouds
Wind 41 km/h from North-West (330°)
Cloud Cover 75%
Precipitation Rain: none, Snow: none
Sunrise 07:23
Sunset 18:22
NOTAM 16 active NOTAM
Rotations During the last 90 days there were
212 flights from LHR
42 flights from LGW
212 flights to LHR
46 flights to LGW
1 flights to LCY
Lounges Confluence Lounge, Terminal 1
Mont Blanc Lounge, Terminal 1
Web Airport Website | Wikipedia
Codes IATA: LYS
ICAO: LFLL
Altitude 250 Meter / 821 Feet
Distance 739 KM / 459 Miles
from London.
Runways
RunwayLength (m)Surface
17L2670Asphalt
17R4000Asphalt
35L4000Asphalt
35R2670Asphalt
Radio
TypeDescriptionFrequency
A/DLyon approach136.075
ATISATIS126.175
GNDGND121.825
PFLTPREFLIGHT121.65
TWRTWR120.45
Live ATC



Support Speedbird Online

© 2017-2024 Speedbird Online